createdAt,value
2023-02-19T00:01:49.540Z,15.51
2023-02-19T00:04:21.833Z,15.57
2023-02-19T00:06:50.124Z,15.53
2023-02-19T00:09:20.052Z,15.54
2023-02-19T00:11:48.705Z,15.47
2023-02-19T00:14:19.963Z,15.48
2023-02-19T00:16:48.893Z,15.48
2023-02-19T00:19:20.802Z,15.45
2023-02-19T00:21:52.391Z,15.48
2023-02-19T00:24:21.538Z,15.46
2023-02-19T00:26:49.481Z,15.45
2023-02-19T00:29:21.139Z,15.47
2023-02-19T00:31:49.299Z,15.51
2023-02-19T00:34:17.098Z,15.49
2023-02-19T00:36:45.121Z,15.49
2023-02-19T00:39:18.268Z,15.47
2023-02-19T00:41:46.605Z,15.48
2023-02-19T00:44:15.467Z,15.50
2023-02-19T00:46:46.524Z,15.55
2023-02-19T00:49:21.858Z,15.52
2023-02-19T00:51:52.077Z,15.52
2023-02-19T00:54:22.415Z,15.49
2023-02-19T00:56:51.655Z,15.49
2023-02-19T00:59:19.645Z,15.48
2023-02-19T01:01:47.391Z,15.44
2023-02-19T01:04:16.544Z,15.46
2023-02-19T01:06:48.888Z,15.45
2023-02-19T01:09:16.830Z,15.37
2023-02-19T01:11:44.938Z,15.37
2023-02-19T01:14:12.742Z,15.29
2023-02-19T01:16:40.514Z,15.31
2023-02-19T01:19:08.590Z,15.32
2023-02-19T01:21:36.369Z,15.25
2023-02-19T01:24:04.747Z,15.27
2023-02-19T01:26:33.761Z,15.19
2023-02-19T01:29:06.581Z,15.17
2023-02-19T01:31:35.567Z,14.99
2023-02-19T01:34:04.571Z,15.08
2023-02-19T01:36:34.272Z,15.17
2023-02-19T01:39:05.003Z,15.18
2023-02-19T01:41:39.387Z,15.19
2023-02-19T01:44:17.739Z,15.22
2023-02-19T01:46:48.431Z,15.15
2023-02-19T01:49:33.517Z,14.97
2023-02-19T01:52:11.916Z,15.03
2023-02-19T01:54:42.916Z,15.10
2023-02-19T01:57:21.625Z,15.12
2023-02-19T01:59:55.280Z,15.10
2023-02-19T02:02:28.444Z,15.07
2023-02-19T02:04:58.672Z,15.02
2023-02-19T02:07:45.209Z,15.04
2023-02-19T02:10:22.305Z,14.96
2023-02-19T02:12:56.865Z,14.99
2023-02-19T02:15:39.315Z,14.95
2023-02-19T02:19:01.115Z,14.94
2023-02-19T02:22:30.169Z,14.85
2023-02-19T02:25:25.069Z,14.86
2023-02-19T02:28:17.456Z,14.86
2023-02-19T02:31:06.413Z,14.83
2023-02-19T02:33:47.455Z,14.85
2023-02-19T02:36:39.430Z,14.87
2023-02-19T02:39:12.858Z,14.79
2023-02-19T02:42:09.859Z,14.85
2023-02-19T02:45:02.975Z,14.83
2023-02-19T02:47:41.178Z,14.78
2023-02-19T02:50:25.022Z,14.82
2023-02-19T02:53:25.411Z,14.80
2023-02-19T02:55:54.429Z,14.75
2023-02-19T02:58:44.397Z,14.74
2023-02-19T03:02:03.887Z,14.77
2023-02-19T03:05:28.692Z,14.73
2023-02-19T03:08:15.785Z,14.70
2023-02-19T03:11:21.633Z,14.72
2023-02-19T03:14:13.878Z,14.64
2023-02-19T03:17:04.458Z,14.68
2023-02-19T03:19:41.934Z,14.72
2023-02-19T03:22:31.382Z,14.71
2023-02-19T03:25:31.440Z,14.76
2023-02-19T03:28:04.990Z,14.75
2023-02-19T03:30:43.721Z,14.73
2023-02-19T03:33:22.617Z,14.80
2023-02-19T03:35:56.984Z,14.80
2023-02-19T03:38:38.399Z,14.82
2023-02-19T03:41:22.109Z,14.77
2023-02-19T03:44:27.376Z,14.80
2023-02-19T03:47:10.976Z,14.79
2023-02-19T03:49:54.742Z,14.78
2023-02-19T03:52:53.497Z,14.77
2023-02-19T03:55:56.144Z,14.80
2023-02-19T03:58:44.563Z,14.72
2023-02-19T04:01:31.337Z,14.70
2023-02-19T04:04:28.916Z,14.72
2023-02-19T04:06:58.130Z,14.68
2023-02-19T04:09:37.701Z,14.70
2023-02-19T04:12:13.178Z,14.60
2023-02-19T04:15:17.923Z,14.53
2023-02-19T04:18:18.057Z,14.57
2023-02-19T04:20:48.105Z,14.56
2023-02-19T04:23:20.669Z,14.54
2023-02-19T04:25:54.748Z,14.54
2023-02-19T04:28:22.736Z,14.53
2023-02-19T04:30:50.681Z,14.51
2023-02-19T04:33:19.310Z,14.52
2023-02-19T04:35:47.069Z,14.53
2023-02-19T04:38:15.723Z,14.55
2023-02-19T04:40:43.420Z,14.51
2023-02-19T04:43:11.376Z,14.51
2023-02-19T04:45:39.551Z,14.40
2023-02-19T04:48:07.365Z,14.42
2023-02-19T04:50:37.344Z,14.35
2023-02-19T04:53:05.720Z,14.30
2023-02-19T04:55:38.548Z,14.28
2023-02-19T04:58:06.254Z,14.27
2023-02-19T05:00:34.513Z,14.26
2023-02-19T05:03:02.367Z,14.22
2023-02-19T05:05:30.126Z,14.20
2023-02-19T05:07:58.043Z,14.17
2023-02-19T05:10:25.734Z,14.15
2023-02-19T05:12:57.885Z,14.20
2023-02-19T05:15:25.780Z,14.16
2023-02-19T05:17:53.558Z,14.11
2023-02-19T05:20:22.977Z,13.99
2023-02-19T05:22:50.868Z,14.01
2023-02-19T05:25:18.694Z,14.01
2023-02-19T05:27:46.630Z,14.00
2023-02-19T05:30:14.373Z,14.04
2023-02-19T05:32:42.131Z,14.03
2023-02-19T05:35:09.908Z,14.04
2023-02-19T05:37:37.642Z,14.09
2023-02-19T05:40:06.090Z,14.08
2023-02-19T05:42:35.876Z,14.05
2023-02-19T05:45:03.844Z,14.09
2023-02-19T05:47:31.524Z,14.04
2023-02-19T05:49:59.284Z,14.07
2023-02-19T05:52:27.025Z,14.06
2023-02-19T05:54:54.872Z,14.01
2023-02-19T05:57:22.939Z,14.00
2023-02-19T05:59:50.824Z,13.94
2023-02-19T06:02:19.938Z,13.98
2023-02-19T06:04:47.616Z,14.00
2023-02-19T06:07:15.330Z,13.92
2023-02-19T06:09:43.009Z,13.92
2023-02-19T06:12:10.698Z,13.96
2023-02-19T06:14:38.926Z,13.90
2023-02-19T06:17:06.695Z,13.93
2023-02-19T06:19:34.499Z,13.94
2023-02-19T06:22:02.428Z,13.98
2023-02-19T06:24:30.584Z,13.93
2023-02-19T06:26:58.565Z,14.00
2023-02-19T06:29:26.418Z,14.03
2023-02-19T06:31:54.204Z,13.99
2023-02-19T06:34:22.027Z,14.02
2023-02-19T06:36:50.848Z,14.01
2023-02-19T06:39:18.865Z,13.95
2023-02-19T06:41:46.541Z,13.98
2023-02-19T06:44:14.526Z,13.94
2023-02-19T06:46:42.884Z,13.94
2023-02-19T06:49:10.614Z,13.93
2023-02-19T06:51:38.386Z,13.93
2023-02-19T06:54:06.366Z,13.90
2023-02-19T06:56:40.291Z,13.96
2023-02-19T06:59:16.689Z,13.95
2023-02-19T07:01:46.005Z,13.90
2023-02-19T07:04:14.258Z,13.93
2023-02-19T07:06:42.485Z,13.94
2023-02-19T07:09:11.145Z,13.95
2023-02-19T07:11:40.252Z,13.91
2023-02-19T07:14:14.294Z,13.93
2023-02-19T07:16:42.126Z,13.88
2023-02-19T07:19:10.579Z,13.86
2023-02-19T07:21:39.329Z,13.81
2023-02-19T07:24:07.204Z,13.87
2023-02-19T07:26:36.203Z,13.85
2023-02-19T07:29:04.868Z,13.88
2023-02-19T07:31:32.685Z,13.85
2023-02-19T07:34:00.449Z,13.82
2023-02-19T07:36:28.539Z,13.85
2023-02-19T07:38:58.192Z,13.88
2023-02-19T07:41:27.330Z,13.80
2023-02-19T07:43:58.400Z,13.88
2023-02-19T07:46:26.512Z,13.90
2023-02-19T07:48:54.288Z,13.92
2023-02-19T07:51:22.780Z,13.88
2023-02-19T07:53:50.876Z,13.90
2023-02-19T07:56:20.165Z,13.96
2023-02-19T07:58:48.003Z,13.90
2023-02-19T08:01:19.607Z,13.96
2023-02-19T08:03:50.312Z,13.99
2023-02-19T08:06:18.395Z,13.99
2023-02-19T08:08:46.413Z,14.07
2023-02-19T08:11:33.227Z,14.10
2023-02-19T08:14:01.148Z,14.16
2023-02-19T08:16:42.252Z,14.17
2023-02-19T08:19:10.928Z,14.14
2023-02-19T08:21:38.845Z,14.14
2023-02-19T08:24:07.032Z,14.15
2023-02-19T08:26:35.856Z,14.19
2023-02-19T08:29:05.679Z,14.18
2023-02-19T08:31:35.298Z,14.19
2023-02-19T08:34:03.172Z,14.25
2023-02-19T08:36:31.108Z,14.20
2023-02-19T08:38:58.881Z,14.26
2023-02-19T08:41:26.718Z,14.26
2023-02-19T08:43:54.449Z,14.27
2023-02-19T08:46:22.789Z,14.37
2023-02-19T08:48:51.115Z,14.37
2023-02-19T08:51:19.061Z,14.42
2023-02-19T08:53:47.146Z,14.43
2023-02-19T08:56:34.795Z,14.48
2023-02-19T08:59:15.077Z,14.42
2023-02-19T09:02:02.947Z,14.45
2023-02-19T09:04:30.927Z,14.51
2023-02-19T09:06:58.984Z,14.50
2023-02-19T09:09:26.928Z,14.51
2023-02-19T09:11:54.731Z,14.52
2023-02-19T09:14:22.543Z,14.55
2023-02-19T09:16:50.567Z,14.52
2023-02-19T09:19:18.752Z,14.53
2023-02-19T09:21:46.481Z,14.60
2023-02-19T09:24:14.406Z,14.58
2023-02-19T09:26:42.073Z,14.63
2023-02-19T09:29:11.974Z,14.56
2023-02-19T09:31:39.782Z,14.61
2023-02-19T09:34:07.811Z,14.67
2023-02-19T09:36:35.583Z,14.71
2023-02-19T09:39:07.554Z,14.74
2023-02-19T09:41:46.573Z,14.77
2023-02-19T09:44:27.541Z,14.84
2023-02-19T09:46:56.079Z,14.86
2023-02-19T09:49:36.842Z,14.96
2023-02-19T09:52:11.820Z,14.96
2023-02-19T09:54:41.064Z,14.98
2023-02-19T09:57:22.583Z,15.12
2023-02-19T10:00:10.381Z,14.92
2023-02-19T10:02:39.178Z,15.07
2023-02-19T10:05:14.407Z,15.17
2023-02-19T10:07:46.060Z,15.20
2023-02-19T10:10:13.873Z,15.25
2023-02-19T10:12:50.346Z,15.28
2023-02-19T10:15:39.003Z,15.27
2023-02-19T10:18:08.866Z,15.32
2023-02-19T10:20:39.438Z,15.35
2023-02-19T10:23:11.209Z,15.38
2023-02-19T10:25:54.167Z,15.38
2023-02-19T10:28:33.594Z,15.41
2023-02-19T10:31:06.168Z,15.35
2023-02-19T10:33:47.583Z,15.38
2023-02-19T10:36:41.916Z,15.41
2023-02-19T10:39:47.933Z,15.48
2023-02-19T10:42:23.442Z,15.57
2023-02-19T10:45:01.723Z,15.63
2023-02-19T10:47:32.800Z,15.71
2023-02-19T10:50:04.404Z,15.72
2023-02-19T10:52:36.175Z,15.82
2023-02-19T10:55:19.150Z,15.71
2023-02-19T10:57:47.007Z,15.80
2023-02-19T11:00:31.251Z,15.94
2023-02-19T11:03:17.862Z,16.03
2023-02-19T11:06:04.386Z,16.00
2023-02-19T11:08:50.204Z,16.05
2023-02-19T11:11:38.360Z,16.03
2023-02-19T11:14:20.047Z,15.99
2023-02-19T11:16:52.063Z,15.82
2023-02-19T11:19:31.890Z,15.94
2023-02-19T11:22:00.693Z,15.94
2023-02-19T11:24:38.338Z,16.02
2023-02-19T11:27:16.894Z,16.06
2023-02-19T11:29:44.789Z,16.02
2023-02-19T11:32:21.644Z,16.09
2023-02-19T11:34:49.592Z,16.06
2023-02-19T11:37:21.071Z,16.08
2023-02-19T11:39:51.606Z,16.06
2023-02-19T11:42:49.405Z,16.09
2023-02-19T11:45:26.707Z,16.07
2023-02-19T11:48:22.237Z,16.06
2023-02-19T11:51:16.961Z,16.03
2023-02-19T11:53:57.759Z,15.96
2023-02-19T11:56:36.654Z,15.98
2023-02-19T11:59:26.699Z,15.98
2023-02-19T12:02:27.241Z,15.94
2023-02-19T12:05:23.289Z,15.89
2023-02-19T12:08:28.115Z,15.79
2023-02-19T12:11:36.555Z,15.83
2023-02-19T12:14:16.134Z,15.86
2023-02-19T12:17:17.042Z,15.88
2023-02-19T12:20:24.333Z,15.70
2023-02-19T12:23:50.858Z,15.78
2023-02-19T12:26:42.112Z,15.90
2023-02-19T12:29:48.897Z,15.89
2023-02-19T12:32:28.587Z,15.93
2023-02-19T12:35:21.005Z,16.03
2023-02-19T12:38:25.090Z,16.10
2023-02-19T12:41:10.303Z,16.15
2023-02-19T12:43:53.519Z,16.29
2023-02-19T12:46:31.379Z,16.37
2023-02-19T12:49:10.406Z,16.44
2023-02-19T12:51:50.466Z,16.44
2023-02-19T12:54:38.827Z,16.54
2023-02-19T12:57:13.014Z,16.62
2023-02-19T13:00:09.471Z,16.67
2023-02-19T13:03:20.891Z,16.72
2023-02-19T13:06:19.360Z,16.77
2023-02-19T13:09:08.044Z,16.77
2023-02-19T13:11:43.496Z,16.86
2023-02-19T13:14:24.374Z,16.87
2023-02-19T13:17:01.590Z,16.83
2023-02-19T13:19:31.359Z,16.80
2023-02-19T13:22:45.622Z,16.80
2023-02-19T13:25:16.235Z,16.63
2023-02-19T13:28:08.097Z,16.68
2023-02-19T13:30:54.816Z,16.72
2023-02-19T13:33:46.791Z,16.73
2023-02-19T13:36:27.970Z,16.80
2023-02-19T13:38:57.652Z,16.79
2023-02-19T13:41:40.777Z,16.97
2023-02-19T13:44:19.836Z,17.02
2023-02-19T13:46:50.309Z,17.01
2023-02-19T13:49:31.568Z,17.08
2023-02-19T13:52:00.419Z,17.05
2023-02-19T13:54:35.976Z,17.07
2023-02-19T13:57:22.400Z,17.10
2023-02-19T13:59:51.759Z,17.04
2023-02-19T14:02:22.214Z,17.09
2023-02-19T14:05:11.726Z,17.07
2023-02-19T14:07:55.334Z,17.07
2023-02-19T14:11:02.587Z,17.12
2023-02-19T14:13:52.462Z,17.17
2023-02-19T14:16:43.215Z,17.26
2023-02-19T14:19:35.076Z,17.31
2023-02-19T14:22:24.542Z,17.33
2023-02-19T14:24:54.902Z,17.37
2023-02-19T14:27:22.931Z,17.47
2023-02-19T14:29:51.122Z,17.50
2023-02-19T14:32:20.613Z,17.49
2023-02-19T14:34:48.810Z,17.47
2023-02-19T14:37:22.486Z,17.52
2023-02-19T14:39:52.197Z,17.56
2023-02-19T14:42:33.532Z,17.57
2023-02-19T14:45:06.712Z,17.58
2023-02-19T14:47:37.072Z,17.58
2023-02-19T14:50:24.678Z,17.62
2023-02-19T14:52:57.639Z,17.60
2023-02-19T14:55:37.940Z,17.60
2023-02-19T14:58:44.167Z,17.60
2023-02-19T15:01:28.943Z,17.51
2023-02-19T15:03:57.064Z,17.52
2023-02-19T15:06:26.924Z,17.52
2023-02-19T15:09:00.640Z,17.54
2023-02-19T15:11:32.433Z,17.49
2023-02-19T15:14:07.126Z,17.50
2023-02-19T15:16:36.680Z,17.47
2023-02-19T15:19:09.458Z,17.45
2023-02-19T15:21:44.538Z,17.41
2023-02-19T15:24:16.701Z,17.40
2023-02-19T15:26:54.211Z,17.37
2023-02-19T15:29:26.233Z,17.34
2023-02-19T15:31:56.253Z,17.33
2023-02-19T15:34:29.704Z,17.36
2023-02-19T15:37:06.329Z,17.35
2023-02-19T15:39:55.907Z,17.35
2023-02-19T15:42:31.134Z,17.30
2023-02-19T15:45:20.881Z,17.27
2023-02-19T15:48:11.630Z,17.19
2023-02-19T15:50:50.503Z,17.10
2023-02-19T15:53:24.914Z,17.08
2023-02-19T15:56:14.236Z,17.03
2023-02-19T15:59:34.080Z,16.94
2023-02-19T16:02:03.943Z,16.90
2023-02-19T16:04:35.477Z,16.91
2023-02-19T16:07:03.952Z,16.87
2023-02-19T16:09:41.069Z,16.87
2023-02-19T16:12:24.888Z,16.79
2023-02-19T16:14:53.835Z,16.76
2023-02-19T16:17:27.835Z,16.74
2023-02-19T16:20:01.388Z,16.72
2023-02-19T16:22:41.262Z,16.73
2023-02-19T16:25:29.129Z,16.70
2023-02-19T16:27:57.782Z,16.60
2023-02-19T16:30:33.998Z,16.68
2023-02-19T16:33:26.611Z,16.64
2023-02-19T16:35:54.432Z,16.54
2023-02-19T16:38:22.285Z,16.58
2023-02-19T16:40:54.145Z,16.56
2023-02-19T16:43:41.439Z,16.55
2023-02-19T16:46:11.955Z,16.52
2023-02-19T16:48:39.968Z,16.49
2023-02-19T16:51:08.745Z,16.45
2023-02-19T16:53:36.533Z,16.44
2023-02-19T16:56:04.535Z,16.44
2023-02-19T16:58:32.274Z,16.42
2023-02-19T17:01:00.736Z,16.43
2023-02-19T17:03:28.797Z,16.39
2023-02-19T17:05:56.825Z,16.36
2023-02-19T17:08:42.336Z,16.39
2023-02-19T17:11:16.569Z,16.37
2023-02-19T17:13:48.876Z,16.31
2023-02-19T17:16:24.421Z,16.28
2023-02-19T17:18:52.940Z,16.28
2023-02-19T17:21:23.433Z,16.22
2023-02-19T17:23:52.290Z,16.21
2023-02-19T17:26:28.046Z,16.17
2023-02-19T17:29:00.632Z,16.11
2023-02-19T17:31:29.297Z,16.06
2023-02-19T17:33:58.869Z,16.03
2023-02-19T17:36:31.978Z,16.04
2023-02-19T17:39:01.826Z,16.00
2023-02-19T17:41:29.950Z,16.00
2023-02-19T17:43:57.897Z,15.92
2023-02-19T17:46:27.399Z,15.95
2023-02-19T17:48:55.576Z,15.93
2023-02-19T17:51:23.441Z,15.92
2023-02-19T17:53:51.173Z,15.94
2023-02-19T17:56:22.419Z,15.94
2023-02-19T17:58:50.407Z,15.92
2023-02-19T18:01:18.282Z,15.90
2023-02-19T18:03:46.377Z,15.93
2023-02-19T18:06:14.540Z,15.94
2023-02-19T18:08:51.444Z,15.98
2023-02-19T18:11:21.941Z,15.94
2023-02-19T18:13:51.746Z,15.89
2023-02-19T18:16:20.002Z,15.90
2023-02-19T18:18:47.883Z,15.84
2023-02-19T18:21:15.815Z,15.80
2023-02-19T18:23:44.099Z,15.77
2023-02-19T18:26:13.695Z,15.78
2023-02-19T18:28:41.570Z,15.78
2023-02-19T18:31:09.669Z,15.69
2023-02-19T18:33:37.659Z,15.71
2023-02-19T18:36:11.753Z,15.73
2023-02-19T18:38:44.501Z,15.72
2023-02-19T18:41:20.280Z,15.69
2023-02-19T18:43:48.701Z,15.59
2023-02-19T18:46:20.703Z,15.64
2023-02-19T18:48:48.474Z,15.59
2023-02-19T18:51:16.273Z,15.56
2023-02-19T18:53:43.930Z,15.61
2023-02-19T18:56:11.639Z,15.55
2023-02-19T18:58:39.376Z,15.51
2023-02-19T19:01:09.038Z,15.58
2023-02-19T19:03:37.209Z,15.47
2023-02-19T19:06:05.230Z,15.57
2023-02-19T19:08:34.286Z,15.57
2023-02-19T19:11:04.786Z,15.52
2023-02-19T19:13:47.039Z,15.51
2023-02-19T19:16:15.567Z,15.55
2023-02-19T19:18:44.345Z,15.56
2023-02-19T19:21:15.433Z,15.57
2023-02-19T19:23:44.599Z,15.57
2023-02-19T19:26:13.961Z,15.56
2023-02-19T19:28:46.539Z,15.63
2023-02-19T19:31:17.613Z,15.61
2023-02-19T19:33:47.605Z,15.41
2023-02-19T19:36:21.616Z,15.53
2023-02-19T19:38:49.710Z,15.56
2023-02-19T19:41:19.864Z,15.50
2023-02-19T19:43:48.174Z,15.52
2023-02-19T19:46:19.094Z,15.60
2023-02-19T19:48:49.011Z,15.40
2023-02-19T19:51:17.734Z,15.45
2023-02-19T19:53:49.997Z,15.53
2023-02-19T19:56:17.932Z,15.55
2023-02-19T19:58:47.504Z,15.55
2023-02-19T20:01:20.748Z,15.50
2023-02-19T20:03:51.015Z,15.58
2023-02-19T20:06:28.683Z,15.59
2023-02-19T20:08:58.408Z,15.54
2023-02-19T20:11:26.759Z,15.60
2023-02-19T20:13:54.695Z,15.56
2023-02-19T20:16:29.184Z,15.64
2023-02-19T20:18:57.096Z,15.60
2023-02-19T20:21:25.617Z,15.62
2023-02-19T20:23:53.779Z,15.61
2023-02-19T20:26:27.922Z,15.64
2023-02-19T20:28:56.547Z,15.61
2023-02-19T20:31:25.204Z,15.60
2023-02-19T20:33:53.920Z,15.59
2023-02-19T20:36:22.361Z,15.55
2023-02-19T20:38:50.207Z,15.53
2023-02-19T20:41:18.009Z,15.53
2023-02-19T20:43:46.308Z,15.55
2023-02-19T20:46:14.591Z,15.49
2023-02-19T20:48:42.567Z,15.56
2023-02-19T20:51:16.576Z,15.54
2023-02-19T20:53:44.713Z,15.54
2023-02-19T20:56:32.532Z,15.52
2023-02-19T20:59:00.587Z,15.50
2023-02-19T21:01:48.607Z,15.49
2023-02-19T21:04:38.730Z,15.46
2023-02-19T21:07:26.994Z,15.48
2023-02-19T21:09:56.629Z,15.46
2023-02-19T21:12:24.566Z,15.48
2023-02-19T21:15:12.273Z,15.43
2023-02-19T21:17:40.171Z,15.41
2023-02-19T21:20:08.923Z,15.43
2023-02-19T21:22:38.572Z,15.43
2023-02-19T21:25:06.823Z,15.42
2023-02-19T21:27:34.587Z,15.39
2023-02-19T21:30:02.991Z,15.43
2023-02-19T21:32:31.106Z,15.44
2023-02-19T21:34:58.937Z,15.39
2023-02-19T21:37:26.729Z,15.43
2023-02-19T21:39:55.617Z,15.43
2023-02-19T21:42:23.390Z,15.44
2023-02-19T21:44:52.431Z,15.45
2023-02-19T21:47:20.476Z,15.45
2023-02-19T21:49:48.561Z,15.44
2023-02-19T21:52:16.422Z,15.41
2023-02-19T21:54:44.141Z,15.45
2023-02-19T21:57:12.092Z,15.39
2023-02-19T21:59:39.777Z,15.41
2023-02-19T22:02:07.525Z,15.40
2023-02-19T22:04:39.741Z,15.33
2023-02-19T22:07:07.623Z,15.35
2023-02-19T22:09:35.969Z,15.36
2023-02-19T22:12:04.312Z,15.35
2023-02-19T22:14:31.988Z,15.36
2023-02-19T22:16:59.661Z,15.32
2023-02-19T22:19:27.550Z,15.35
2023-02-19T22:21:55.734Z,15.36
2023-02-19T22:24:23.787Z,15.35
2023-02-19T22:26:58.945Z,15.40
2023-02-19T22:29:27.809Z,15.37
2023-02-19T22:31:56.033Z,15.35
2023-02-19T22:34:24.877Z,15.38
2023-02-19T22:36:52.947Z,15.33
2023-02-19T22:39:25.247Z,15.38
2023-02-19T22:41:54.698Z,15.35
2023-02-19T22:44:22.555Z,15.34
2023-02-19T22:46:59.268Z,15.39
2023-02-19T22:49:27.008Z,15.33
2023-02-19T22:52:04.257Z,15.37
2023-02-19T22:54:33.923Z,15.33
2023-02-19T22:57:02.247Z,15.31
2023-02-19T22:59:30.268Z,15.27
2023-02-19T23:01:58.126Z,15.25
2023-02-19T23:04:26.222Z,15.22
2023-02-19T23:06:56.636Z,15.17
2023-02-19T23:09:27.963Z,15.17
2023-02-19T23:12:08.318Z,15.15
2023-02-19T23:14:36.886Z,15.00
2023-02-19T23:17:05.293Z,15.04
2023-02-19T23:19:33.297Z,15.01
2023-02-19T23:22:01.203Z,15.04
2023-02-19T23:24:29.168Z,14.95
2023-02-19T23:26:56.994Z,14.98
2023-02-19T23:29:27.011Z,14.93
2023-02-19T23:31:54.849Z,14.96
2023-02-19T23:34:24.308Z,14.92
2023-02-19T23:36:53.966Z,14.93
2023-02-19T23:39:22.688Z,14.92
2023-02-19T23:41:57.133Z,14.90
2023-02-19T23:44:26.307Z,14.84
2023-02-19T23:46:55.678Z,14.84
2023-02-19T23:49:23.758Z,14.82
2023-02-19T23:51:51.735Z,14.78
2023-02-19T23:54:19.537Z,14.75
2023-02-19T23:56:47.501Z,14.68
2023-02-19T23:59:15.618Z,14.70
